createdAt,value
2022-09-09T00:01:38.804Z,10.70
2022-09-09T00:04:22.096Z,15.00
2022-09-09T00:07:04.748Z,10.40
2022-09-09T00:09:50.399Z,13.10
2022-09-09T00:12:32.991Z,11.50
2022-09-09T00:15:14.427Z,11.70
2022-09-09T00:17:55.822Z,13.00
2022-09-09T00:20:37.176Z,14.20
2022-09-09T00:23:21.233Z,12.30
2022-09-09T00:26:05.203Z,13.50
2022-09-09T00:28:46.561Z,12.80
2022-09-09T00:31:23.565Z,14.70
2022-09-09T00:34:02.371Z,14.50
2022-09-09T00:39:12.929Z,14.00
2022-09-09T00:42:01.413Z,14.60
2022-09-09T00:44:37.095Z,14.50
2022-09-09T00:47:28.518Z,14.50
2022-09-09T00:50:12.025Z,14.30
2022-09-09T00:52:55.236Z,13.30
2022-09-09T00:55:37.126Z,15.50
2022-09-09T00:58:11.377Z,12.80
2022-09-09T01:00:50.533Z,16.70
2022-09-09T01:03:32.179Z,13.70
2022-09-09T01:06:23.745Z,14.20
2022-09-09T01:09:18.997Z,16.10
2022-09-09T01:12:00.602Z,13.60
2022-09-09T01:14:45.850Z,14.20
2022-09-09T01:17:24.678Z,15.80
2022-09-09T01:20:11.364Z,14.40
2022-09-09T01:23:03.357Z,15.80
2022-09-09T01:26:12.454Z,14.30
2022-09-09T01:28:48.665Z,12.60
2022-09-09T01:31:26.946Z,13.90
2022-09-09T01:34:00.110Z,18.30
2022-09-09T01:36:43.598Z,15.70
2022-09-09T01:39:17.073Z,14.90
2022-09-09T01:41:51.555Z,14.00
2022-09-09T01:44:27.194Z,16.30
2022-09-09T01:47:00.523Z,14.70
2022-09-09T01:49:34.306Z,13.60
2022-09-09T01:52:13.638Z,14.10
2022-09-09T01:54:46.772Z,14.40
2022-09-09T01:57:30.669Z,15.00
2022-09-09T02:00:10.860Z,13.90
2022-09-09T02:02:57.998Z,14.10
2022-09-09T02:05:42.012Z,13.20
2022-09-09T02:08:32.180Z,14.70
2022-09-09T02:11:13.836Z,14.90
2022-09-09T02:13:57.633Z,18.30
2022-09-09T02:16:35.592Z,13.90
2022-09-09T02:19:14.714Z,14.20
2022-09-09T02:22:11.905Z,15.40
2022-09-09T02:24:47.513Z,15.40
2022-09-09T02:27:26.283Z,15.50
2022-09-09T02:30:03.494Z,15.60
2022-09-09T02:32:44.931Z,16.00
2022-09-09T02:35:22.826Z,14.60
2022-09-09T02:38:00.549Z,15.30
2022-09-09T02:40:33.984Z,17.30
2022-09-09T02:43:19.901Z,13.10
2022-09-09T02:46:03.699Z,16.40
2022-09-09T02:48:47.502Z,14.00
2022-09-09T02:51:27.087Z,15.50
2022-09-09T02:54:11.963Z,15.30
2022-09-09T02:56:51.317Z,14.30
2022-09-09T02:59:27.698Z,14.80
2022-09-09T03:02:01.581Z,14.10
2022-09-09T03:04:35.853Z,14.40
2022-09-09T03:07:08.988Z,14.70
2022-09-09T03:09:43.384Z,14.40
2022-09-09T03:12:17.636Z,14.50
2022-09-09T03:14:51.153Z,14.80
2022-09-09T03:17:25.023Z,14.00
2022-09-09T03:20:00.313Z,13.60
2022-09-09T03:22:33.826Z,12.50
2022-09-09T03:25:10.636Z,11.70
2022-09-09T03:27:43.774Z,11.90
2022-09-09T03:30:18.368Z,12.90
2022-09-09T03:32:52.053Z,11.20
2022-09-09T03:35:25.379Z,11.60
2022-09-09T03:37:58.964Z,11.80
2022-09-09T03:40:32.305Z,11.80
2022-09-09T03:43:05.399Z,12.10
2022-09-09T03:45:38.530Z,10.60
2022-09-09T03:48:13.277Z,11.60
2022-09-09T03:50:50.409Z,12.90
2022-09-09T03:53:25.933Z,11.00
2022-09-09T03:56:01.986Z,10.60
2022-09-09T03:58:37.256Z,14.10
2022-09-09T04:01:16.078Z,10.20
2022-09-09T04:03:49.953Z,12.80
2022-09-09T04:06:23.459Z,11.20
2022-09-09T04:08:56.796Z,9.60
2022-09-09T04:11:30.280Z,12.30
2022-09-09T04:14:05.503Z,9.50
2022-09-09T04:16:39.272Z,10.40
2022-09-09T04:19:13.730Z,10.50
2022-09-09T04:21:47.805Z,11.00
2022-09-09T04:24:21.488Z,12.90
2022-09-09T04:26:54.774Z,12.40
2022-09-09T04:29:27.968Z,13.70
2022-09-09T04:32:00.932Z,10.50
2022-09-09T04:34:34.165Z,9.80
2022-09-09T04:37:07.758Z,11.30
2022-09-09T04:39:41.006Z,11.10
2022-09-09T04:42:14.265Z,11.00
2022-09-09T04:44:49.053Z,12.60
2022-09-09T04:47:22.780Z,11.60
2022-09-09T04:49:56.267Z,9.60
2022-09-09T04:52:29.424Z,10.50
2022-09-09T04:55:03.123Z,10.40
2022-09-09T04:57:37.001Z,10.80
2022-09-09T05:00:14.138Z,12.00
2022-09-09T05:02:48.900Z,10.30
2022-09-09T05:05:22.478Z,10.00
2022-09-09T05:07:56.399Z,11.40
2022-09-09T05:10:32.344Z,10.60
2022-09-09T05:13:06.044Z,11.90
2022-09-09T05:15:40.016Z,9.10
2022-09-09T05:18:13.810Z,9.60
2022-09-09T05:20:46.881Z,10.90
2022-09-09T05:23:20.151Z,9.20
2022-09-09T05:26:00.638Z,10.00
2022-09-09T05:28:36.685Z,9.20
2022-09-09T05:31:12.671Z,12.50
2022-09-09T05:33:48.149Z,10.80
2022-09-09T05:36:22.886Z,10.30
2022-09-09T05:38:58.759Z,8.80
2022-09-09T05:41:33.088Z,10.00
2022-09-09T05:44:08.494Z,9.30
2022-09-09T05:46:46.049Z,10.80
2022-09-09T05:49:19.766Z,10.30
2022-09-09T05:51:54.226Z,9.20
2022-09-09T05:54:27.495Z,8.20
2022-09-09T05:57:04.647Z,9.20
2022-09-09T05:59:38.086Z,9.20
2022-09-09T06:02:13.885Z,9.30
2022-09-09T06:04:47.013Z,8.50
2022-09-09T06:07:24.075Z,10.20
2022-09-09T06:09:57.582Z,9.90
2022-09-09T06:12:34.426Z,9.30
2022-09-09T06:15:10.347Z,9.70
2022-09-09T06:17:44.441Z,10.50
2022-09-09T06:20:18.867Z,9.30
2022-09-09T06:22:52.255Z,10.10
2022-09-09T06:25:26.435Z,8.70
2022-09-09T06:27:59.651Z,9.50
2022-09-09T06:30:33.082Z,9.00
2022-09-09T06:33:07.223Z,9.70
2022-09-09T06:35:40.620Z,10.50
2022-09-09T06:38:13.697Z,9.30
2022-09-09T06:40:53.252Z,9.90
2022-09-09T06:43:27.256Z,10.90
2022-09-09T06:46:03.115Z,10.90
2022-09-09T06:48:36.285Z,10.70
2022-09-09T06:51:12.874Z,9.20
2022-09-09T06:53:48.901Z,11.10
2022-09-09T06:56:29.399Z,10.30
2022-09-09T06:59:05.251Z,9.50
2022-09-09T07:01:42.146Z,10.20
2022-09-09T07:04:17.891Z,10.20
2022-09-09T07:06:51.523Z,10.20
2022-09-09T07:09:28.776Z,9.80
2022-09-09T07:12:02.390Z,10.10
2022-09-09T07:14:39.358Z,11.20
2022-09-09T07:17:14.286Z,11.50
2022-09-09T07:19:49.754Z,11.70
2022-09-09T07:22:26.396Z,13.20
2022-09-09T07:25:00.540Z,13.80
2022-09-09T07:27:36.469Z,14.00
2022-09-09T07:30:14.946Z,11.40
2022-09-09T07:32:58.127Z,13.20
2022-09-09T07:35:32.091Z,13.30
2022-09-09T07:38:07.877Z,13.80
2022-09-09T07:40:41.774Z,14.30
2022-09-09T07:43:17.359Z,13.30
2022-09-09T07:45:59.506Z,14.00
2022-09-09T07:48:33.225Z,13.70
2022-09-09T07:51:14.945Z,13.40
2022-09-09T07:53:49.537Z,13.10
2022-09-09T07:56:24.491Z,14.70
2022-09-09T07:58:59.918Z,13.60
2022-09-09T08:01:36.885Z,15.60
2022-09-09T08:04:16.875Z,16.40
2022-09-09T08:06:54.145Z,14.30
2022-09-09T08:09:30.640Z,13.90
2022-09-09T08:12:15.670Z,15.00
2022-09-09T08:14:55.468Z,13.70
2022-09-09T08:17:32.849Z,14.10
2022-09-09T08:20:12.466Z,17.50
2022-09-09T08:22:46.694Z,14.80
2022-09-09T08:25:21.405Z,12.50
2022-09-09T08:27:57.433Z,15.90
2022-09-09T08:30:31.483Z,15.40
2022-09-09T08:33:06.689Z,13.80
2022-09-09T08:35:40.737Z,14.80
2022-09-09T08:38:15.685Z,15.30
2022-09-09T08:40:52.460Z,16.20
2022-09-09T08:43:30.747Z,17.00
2022-09-09T08:46:13.385Z,15.50
2022-09-09T08:48:56.898Z,15.90
2022-09-09T08:51:35.948Z,18.30
2022-09-09T08:54:11.380Z,18.80
2022-09-09T08:56:45.848Z,17.30
2022-09-09T08:59:21.712Z,17.40
2022-09-09T09:02:16.504Z,18.00
2022-09-09T09:05:08.516Z,16.10
2022-09-09T09:07:57.867Z,20.10
2022-09-09T09:10:48.186Z,20.50
2022-09-09T09:13:44.045Z,15.60
2022-09-09T09:16:29.658Z,18.30
2022-09-09T09:19:07.463Z,21.10
2022-09-09T09:21:45.080Z,24.20
2022-09-09T09:24:23.070Z,20.10
2022-09-09T09:26:56.980Z,19.30
2022-09-09T09:29:31.715Z,18.70
2022-09-09T09:32:09.134Z,20.00
2022-09-09T09:34:42.559Z,23.20
2022-09-09T09:37:26.131Z,22.10
2022-09-09T09:40:10.580Z,21.30
2022-09-09T09:42:54.555Z,23.60
2022-09-09T09:46:06.869Z,20.80
2022-09-09T09:48:41.713Z,23.10
2022-09-09T09:51:20.077Z,22.90
2022-09-09T09:53:57.198Z,23.10
2022-09-09T09:56:33.747Z,22.40
2022-09-09T09:59:17.817Z,21.40
2022-09-09T10:02:16.309Z,23.00
2022-09-09T10:04:50.613Z,23.10
2022-09-09T10:07:26.556Z,25.30
2022-09-09T10:10:01.958Z,23.70
2022-09-09T10:12:51.702Z,24.70
2022-09-09T10:15:38.102Z,23.20
2022-09-09T10:18:25.397Z,23.00
2022-09-09T10:21:09.031Z,24.10
2022-09-09T10:23:58.812Z,24.10
2022-09-09T10:26:47.667Z,22.50
2022-09-09T10:32:35.969Z,25.40
2022-09-09T10:35:15.129Z,23.60
2022-09-09T10:38:18.416Z,25.00
2022-09-09T10:41:09.809Z,25.30
2022-09-09T10:44:06.476Z,24.90
2022-09-09T10:46:56.366Z,23.60
2022-09-09T10:49:46.335Z,28.50
2022-09-09T10:52:26.907Z,27.00
2022-09-09T10:55:25.593Z,27.00
2022-09-09T10:58:03.235Z,26.10
2022-09-09T11:00:44.387Z,26.60
2022-09-09T11:03:31.910Z,30.10
2022-09-09T11:06:22.075Z,30.10
2022-09-09T11:08:58.416Z,31.00
2022-09-09T11:11:38.390Z,28.10
2022-09-09T11:14:19.068Z,26.80
2022-09-09T11:16:56.625Z,27.90
2022-09-09T11:19:36.892Z,27.70
2022-09-09T11:22:18.441Z,23.70
2022-09-09T11:24:55.964Z,28.30
2022-09-09T11:27:40.835Z,29.20
2022-09-09T11:30:56.229Z,28.80
2022-09-09T11:33:58.948Z,29.80
2022-09-09T11:36:45.899Z,30.20
2022-09-09T11:39:47.932Z,27.90
2022-09-09T11:42:31.842Z,32.80
2022-09-09T11:45:22.335Z,30.30
2022-09-09T11:48:00.535Z,34.80
2022-09-09T11:50:41.567Z,36.60
2022-09-09T11:53:26.731Z,33.90
2022-09-09T11:56:28.683Z,35.00
2022-09-09T11:59:08.976Z,36.50
2022-09-09T12:01:53.064Z,37.80
2022-09-09T12:04:59.379Z,32.20
2022-09-09T12:07:44.106Z,33.50
2022-09-09T12:10:30.052Z,38.40
2022-09-09T12:13:20.940Z,36.30
2022-09-09T12:15:55.616Z,34.00
2022-09-09T12:18:36.049Z,35.20
2022-09-09T12:21:20.791Z,35.40
2022-09-09T12:23:58.376Z,37.70
2022-09-09T12:26:40.870Z,37.70
2022-09-09T12:29:37.785Z,33.20
2022-09-09T12:32:34.891Z,35.30
2022-09-09T12:35:22.977Z,41.80
2022-09-09T12:38:01.438Z,37.10
2022-09-09T12:40:37.588Z,36.90
2022-09-09T12:43:25.931Z,39.40
2022-09-09T12:46:02.879Z,33.40
2022-09-09T12:48:43.947Z,37.20
2022-09-09T12:51:29.507Z,37.70
2022-09-09T12:54:06.789Z,37.60
2022-09-09T12:56:41.067Z,38.70
2022-09-09T12:59:28.096Z,41.30
2022-09-09T13:02:02.063Z,38.30
2022-09-09T13:04:36.573Z,38.60
2022-09-09T13:07:17.502Z,41.70
2022-09-09T13:09:53.767Z,38.40
2022-09-09T13:12:28.699Z,41.00
2022-09-09T13:15:03.654Z,44.00
2022-09-09T13:17:37.409Z,40.90
2022-09-09T13:20:22.457Z,33.70
2022-09-09T13:22:59.635Z,39.40
2022-09-09T13:26:00.735Z,40.10
2022-09-09T13:28:39.032Z,39.90
2022-09-09T13:31:28.649Z,39.10
2022-09-09T13:34:02.005Z,36.90
2022-09-09T13:36:37.549Z,42.80
2022-09-09T13:39:25.938Z,33.80
2022-09-09T13:42:00.772Z,42.30
2022-09-09T13:45:05.779Z,39.00
2022-09-09T13:47:56.687Z,38.00
2022-09-09T13:50:34.935Z,40.10
2022-09-09T13:53:11.705Z,36.70
2022-09-09T13:55:52.219Z,37.40
2022-09-09T13:58:31.182Z,43.10
2022-09-09T14:01:29.345Z,42.40
2022-09-09T14:04:04.890Z,39.30
2022-09-09T14:06:44.924Z,36.90
2022-09-09T14:09:27.117Z,44.00
2022-09-09T14:12:01.042Z,40.70
2022-09-09T14:14:46.614Z,37.30
2022-09-09T14:17:21.303Z,39.60
2022-09-09T14:19:58.784Z,38.10
2022-09-09T14:22:40.517Z,41.60
2022-09-09T14:25:15.622Z,34.40
2022-09-09T14:27:54.676Z,37.40
2022-09-09T14:30:42.702Z,40.90
2022-09-09T14:33:18.641Z,38.00
2022-09-09T14:36:00.410Z,38.40
2022-09-09T14:41:18.329Z,34.00
2022-09-09T14:43:59.015Z,33.80
2022-09-09T14:46:35.181Z,34.80
2022-09-09T14:49:08.686Z,37.50
2022-09-09T14:51:42.103Z,36.80
2022-09-09T14:54:16.144Z,45.60
2022-09-09T14:56:58.435Z,37.90
2022-09-09T14:59:31.752Z,41.30
2022-09-09T15:02:05.731Z,38.10
2022-09-09T15:04:41.872Z,34.60
2022-09-09T15:07:15.051Z,34.90
2022-09-09T15:10:10.534Z,36.60
2022-09-09T15:12:44.204Z,38.70
2022-09-09T15:15:17.739Z,39.60
2022-09-09T15:17:50.956Z,37.70
2022-09-09T15:20:24.241Z,36.10
2022-09-09T15:22:57.691Z,38.00
2022-09-09T15:25:31.028Z,38.70
2022-09-09T15:28:04.402Z,35.50
2022-09-09T15:30:38.017Z,33.80
2022-09-09T15:33:13.481Z,39.60
2022-09-09T15:35:47.379Z,34.60
2022-09-09T15:38:20.910Z,36.90
2022-09-09T15:40:59.869Z,35.00
2022-09-09T15:43:33.077Z,38.00
2022-09-09T15:46:25.693Z,34.30
2022-09-09T15:49:01.435Z,32.00
2022-09-09T15:51:48.042Z,42.20
2022-09-09T15:54:25.276Z,34.00
2022-09-09T15:57:01.155Z,33.20
2022-09-09T15:59:38.096Z,31.70
2022-09-09T16:02:12.140Z,35.60
2022-09-09T16:04:54.986Z,31.50
2022-09-09T16:07:28.336Z,33.20
2022-09-09T16:10:02.018Z,29.60
2022-09-09T16:12:36.010Z,33.30
2022-09-09T16:15:11.621Z,29.10
2022-09-09T16:17:46.105Z,32.60
2022-09-09T16:20:20.381Z,32.30
2022-09-09T16:22:53.485Z,27.80
2022-09-09T16:25:27.008Z,29.30
2022-09-09T16:28:03.204Z,29.40
2022-09-09T16:30:39.677Z,33.60
2022-09-09T16:33:15.938Z,33.00
2022-09-09T16:35:50.491Z,34.50
2022-09-09T16:38:23.753Z,34.60
2022-09-09T16:41:03.328Z,34.30
2022-09-09T16:43:37.808Z,38.80
2022-09-09T16:46:18.262Z,32.00
2022-09-09T16:48:51.817Z,37.10
2022-09-09T16:51:27.103Z,32.70
2022-09-09T16:54:03.218Z,34.00
2022-09-09T16:56:38.235Z,33.50
2022-09-09T16:59:14.572Z,33.50
2022-09-09T17:01:49.393Z,34.20
2022-09-09T17:04:25.453Z,33.00
2022-09-09T17:09:35.237Z,34.10
2022-09-09T17:12:13.347Z,32.10
2022-09-09T17:17:40.365Z,30.20
2022-09-09T17:20:18.289Z,30.00
2022-09-09T17:22:54.602Z,34.30
2022-09-09T17:25:27.854Z,31.70
2022-09-09T17:28:02.878Z,31.10
2022-09-09T17:30:39.438Z,32.00
2022-09-09T17:33:12.582Z,29.60
2022-09-09T17:35:49.569Z,27.90
2022-09-09T17:38:28.059Z,31.20
2022-09-09T17:41:11.925Z,36.30
2022-09-09T17:43:45.843Z,31.90
2022-09-09T17:46:22.768Z,29.90
2022-09-09T17:48:59.260Z,31.40
2022-09-09T17:51:35.141Z,32.40
2022-09-09T17:54:10.384Z,32.50
2022-09-09T17:56:45.300Z,30.70
2022-09-09T17:59:19.875Z,28.10
2022-09-09T18:02:14.927Z,30.50
2022-09-09T18:04:48.611Z,29.70
2022-09-09T18:07:22.287Z,28.00
2022-09-09T18:10:05.959Z,25.20
2022-09-09T18:12:39.258Z,22.40
2022-09-09T18:15:20.962Z,23.30
2022-09-09T18:18:07.348Z,26.20
2022-09-09T18:21:06.863Z,24.90
2022-09-09T18:23:42.699Z,31.10
2022-09-09T18:26:17.981Z,27.70
2022-09-09T18:28:54.152Z,23.20
2022-09-09T18:31:29.323Z,24.60
2022-09-09T18:34:04.402Z,27.10
2022-09-09T18:36:40.457Z,26.20
2022-09-09T18:39:15.866Z,26.50
2022-09-09T18:41:52.363Z,28.00
2022-09-09T18:44:30.753Z,24.70
2022-09-09T18:47:05.271Z,22.90
2022-09-09T18:49:38.992Z,23.60
2022-09-09T18:52:13.105Z,23.00
2022-09-09T18:54:46.701Z,18.90
2022-09-09T18:57:21.115Z,22.60
2022-09-09T18:59:55.757Z,23.30
2022-09-09T19:02:31.518Z,20.50
2022-09-09T19:05:08.465Z,21.20
2022-09-09T19:07:42.256Z,24.00
2022-09-09T19:10:18.779Z,22.30
2022-09-09T19:12:52.704Z,25.10
2022-09-09T19:15:26.203Z,23.90
2022-09-09T19:18:03.981Z,24.60
2022-09-09T19:20:42.496Z,24.10
2022-09-09T19:23:36.184Z,22.50
2022-09-09T19:26:11.385Z,23.50
2022-09-09T19:28:56.473Z,22.50
2022-09-09T19:31:31.104Z,23.40
2022-09-09T19:34:04.549Z,23.80
2022-09-09T19:36:38.107Z,23.30
2022-09-09T19:39:13.136Z,20.80
2022-09-09T19:41:47.431Z,21.40
2022-09-09T19:44:22.282Z,22.50
2022-09-09T19:46:59.983Z,21.40
2022-09-09T19:49:33.548Z,22.90
2022-09-09T19:52:07.131Z,21.90
2022-09-09T19:54:40.383Z,20.70
2022-09-09T19:57:13.972Z,21.10
2022-09-09T19:59:47.584Z,21.30
2022-09-09T20:02:58.079Z,20.60
2022-09-09T20:05:38.392Z,21.40
2022-09-09T20:08:11.574Z,22.70
2022-09-09T20:10:54.684Z,21.90
2022-09-09T20:13:27.784Z,19.70
2022-09-09T20:16:04.220Z,23.10
2022-09-09T20:18:48.135Z,23.10
2022-09-09T20:21:26.363Z,22.50
2022-09-09T20:24:03.881Z,22.70
2022-09-09T20:26:48.468Z,22.50
2022-09-09T20:29:26.488Z,23.80
2022-09-09T20:31:59.571Z,22.10
2022-09-09T20:34:32.975Z,24.30
2022-09-09T20:37:06.482Z,22.40
2022-09-09T20:39:40.334Z,23.20
2022-09-09T20:42:13.522Z,22.20
2022-09-09T20:44:47.379Z,23.90
2022-09-09T20:47:20.597Z,18.50
2022-09-09T20:49:53.825Z,20.60
2022-09-09T20:52:27.635Z,22.30
2022-09-09T20:55:01.021Z,19.80
2022-09-09T20:57:37.549Z,21.40
2022-09-09T21:00:13.671Z,18.40
2022-09-09T21:02:46.910Z,19.50
2022-09-09T21:05:24.086Z,19.60
2022-09-09T21:08:06.905Z,20.60
2022-09-09T21:10:46.142Z,19.40
2022-09-09T21:13:19.407Z,21.40
2022-09-09T21:15:53.915Z,19.30
2022-09-09T21:18:29.558Z,19.00
2022-09-09T21:21:03.169Z,18.20
2022-09-09T21:23:37.126Z,20.00
2022-09-09T21:26:11.335Z,18.20
2022-09-09T21:28:44.791Z,17.70
2022-09-09T21:31:21.754Z,17.80
2022-09-09T21:33:59.187Z,17.60
2022-09-09T21:36:34.125Z,18.30
2022-09-09T21:39:07.613Z,19.00
2022-09-09T21:41:41.057Z,21.00
2022-09-09T21:44:14.750Z,17.50
2022-09-09T21:46:48.325Z,19.90
2022-09-09T21:49:21.798Z,15.60
2022-09-09T21:51:55.469Z,18.20
2022-09-09T21:54:32.010Z,19.80
2022-09-09T21:57:07.884Z,16.30
2022-09-09T21:59:42.449Z,15.60
2022-09-09T22:02:16.978Z,17.30
2022-09-09T22:04:53.778Z,17.70
2022-09-09T22:07:26.992Z,15.80
2022-09-09T22:10:00.565Z,15.10
2022-09-09T22:12:35.557Z,17.30
2022-09-09T22:15:10.272Z,14.90
2022-09-09T22:17:43.439Z,15.90
2022-09-09T22:20:16.817Z,17.70
2022-09-09T22:22:49.909Z,14.50
2022-09-09T22:25:23.484Z,14.60
2022-09-09T22:27:59.001Z,17.80
2022-09-09T22:30:32.225Z,18.40
2022-09-09T22:33:05.548Z,16.90
2022-09-09T22:35:44.196Z,14.80
2022-09-09T22:38:18.076Z,14.60
2022-09-09T22:40:52.297Z,16.60
2022-09-09T22:43:25.908Z,15.30
2022-09-09T22:45:59.047Z,16.50
2022-09-09T22:48:35.633Z,17.40
2022-09-09T22:51:11.111Z,14.90
2022-09-09T22:53:49.701Z,15.00
2022-09-09T22:56:23.117Z,16.60
2022-09-09T22:59:07.870Z,15.50
2022-09-09T23:01:41.226Z,16.70
2022-09-09T23:04:15.178Z,15.20
2022-09-09T23:06:48.245Z,14.40
2022-09-09T23:09:21.625Z,13.60
2022-09-09T23:11:55.029Z,15.50
2022-09-09T23:14:34.294Z,16.70
2022-09-09T23:17:07.556Z,17.30
2022-09-09T23:19:40.684Z,13.90
2022-09-09T23:22:15.456Z,15.70
2022-09-09T23:24:49.415Z,15.70
2022-09-09T23:27:22.916Z,15.20
2022-09-09T23:29:57.065Z,14.60
2022-09-09T23:32:40.710Z,13.70
2022-09-09T23:35:14.262Z,14.20
2022-09-09T23:37:54.799Z,13.60
2022-09-09T23:40:27.931Z,13.30
2022-09-09T23:43:01.100Z,13.70
2022-09-09T23:45:34.167Z,13.60
2022-09-09T23:48:08.013Z,13.00
2022-09-09T23:50:41.376Z,13.40
2022-09-09T23:53:18.064Z,12.70
2022-09-09T23:55:55.117Z,12.80
2022-09-09T23:58:28.381Z,13.20
